sensor_id;sensor_type;location;lat;lon;timestamp;P1;durP1;ratioP1;P2;durP2;ratioP2
9846;SDS011;68671;50.084;8.794;2023-06-04T00:02:17;0.10;;;0.10;;
9846;SDS011;68671;50.084;8.794;2023-06-04T00:04:44;0.10;;;0.10;;
9846;SDS011;68671;50.084;8.794;2023-06-04T00:07:11;0.10;;;0.10;;
9846;SDS011;68671;50.084;8.794;2023-06-04T00:09:37;0.10;;;0.10;;
9846;SDS011;68671;50.084;8.794;2023-06-04T00:12:05;0.10;;;0.10;;
9846;SDS011;68671;50.084;8.794;2023-06-04T00:14:34;0.10;;;0.10;;
9846;SDS011;68671;50.084;8.794;2023-06-04T00:17:01;0.10;;;0.10;;
9846;SDS011;68671;50.084;8.794;2023-06-04T00:19:28;0.10;;;0.10;;
9846;SDS011;68671;50.084;8.794;2023-06-04T00:21:55;0.10;;;0.10;;
9846;SDS011;68671;50.084;8.794;2023-06-04T00:24:22;0.10;;;0.10;;
9846;SDS011;68671;50.084;8.794;2023-06-04T00:26:48;0.10;;;0.10;;
9846;SDS011;68671;50.084;8.794;2023-06-04T00:29:15;0.10;;;0.10;;
9846;SDS011;68671;50.084;8.794;2023-06-04T00:31:44;0.10;;;0.10;;
9846;SDS011;68671;50.084;8.794;2023-06-04T00:34:11;0.10;;;0.10;;
9846;SDS011;68671;50.084;8.794;2023-06-04T00:36:38;0.15;;;0.15;;
9846;SDS011;68671;50.084;8.794;2023-06-04T00:39:06;0.10;;;0.10;;
9846;SDS011;68671;50.084;8.794;2023-06-04T00:41:32;0.10;;;0.10;;
9846;SDS011;68671;50.084;8.794;2023-06-04T00:43:59;0.20;;;0.20;;
9846;SDS011;68671;50.084;8.794;2023-06-04T00:46:26;0.10;;;0.10;;
9846;SDS011;68671;50.084;8.794;2023-06-04T00:48:55;0.10;;;0.10;;
9846;SDS011;68671;50.084;8.794;2023-06-04T00:51:22;0.10;;;0.10;;
9846;SDS011;68671;50.084;8.794;2023-06-04T00:53:50;0.10;;;0.10;;
9846;SDS011;68671;50.084;8.794;2023-06-04T00:56:18;0.10;;;0.10;;
9846;SDS011;68671;50.084;8.794;2023-06-04T00:58:45;0.10;;;0.10;;
9846;SDS011;68671;50.084;8.794;2023-06-04T01:01:15;0.15;;;0.15;;
9846;SDS011;68671;50.084;8.794;2023-06-04T01:03:49;0.10;;;0.10;;
9846;SDS011;68671;50.084;8.794;2023-06-04T01:06:23;0.10;;;0.10;;
9846;SDS011;68671;50.084;8.794;2023-06-04T01:08:57;0.10;;;0.10;;
9846;SDS011;68671;50.084;8.794;2023-06-04T01:11:31;0.10;;;0.10;;
9846;SDS011;68671;50.084;8.794;2023-06-04T01:13:59;0.20;;;0.20;;
9846;SDS011;68671;50.084;8.794;2023-06-04T01:16:27;0.10;;;0.10;;
9846;SDS011;68671;50.084;8.794;2023-06-04T01:18:58;0.10;;;0.10;;
9846;SDS011;68671;50.084;8.794;2023-06-04T01:21:29;0.10;;;0.10;;
9846;SDS011;68671;50.084;8.794;2023-06-04T01:24:00;0.10;;;0.10;;
9846;SDS011;68671;50.084;8.794;2023-06-04T01:26:32;0.10;;;0.10;;
9846;SDS011;68671;50.084;8.794;2023-06-04T01:28:58;0.10;;;0.10;;
9846;SDS011;68671;50.084;8.794;2023-06-04T01:31:26;0.10;;;0.10;;
9846;SDS011;68671;50.084;8.794;2023-06-04T01:33:57;0.10;;;0.10;;
9846;SDS011;68671;50.084;8.794;2023-06-04T01:36:24;0.10;;;0.10;;
9846;SDS011;68671;50.084;8.794;2023-06-04T01:38:53;0.20;;;0.20;;
9846;SDS011;68671;50.084;8.794;2023-06-04T01:41:20;0.10;;;0.10;;
9846;SDS011;68671;50.084;8.794;2023-06-04T01:43:48;0.10;;;0.10;;
9846;SDS011;68671;50.084;8.794;2023-06-04T01:46:14;0.10;;;0.10;;
9846;SDS011;68671;50.084;8.794;2023-06-04T01:48:41;0.10;;;0.10;;
9846;SDS011;68671;50.084;8.794;2023-06-04T01:51:08;0.20;;;0.20;;
9846;SDS011;68671;50.084;8.794;2023-06-04T01:53:35;0.10;;;0.10;;
9846;SDS011;68671;50.084;8.794;2023-06-04T01:56:04;0.10;;;0.10;;
9846;SDS011;68671;50.084;8.794;2023-06-04T01:58:32;0.20;;;0.20;;
9846;SDS011;68671;50.084;8.794;2023-06-04T02:00:59;0.20;;;0.20;;
9846;SDS011;68671;50.084;8.794;2023-06-04T02:03:28;0.10;;;0.10;;
9846;SDS011;68671;50.084;8.794;2023-06-04T02:06:01;0.10;;;0.10;;
9846;SDS011;68671;50.084;8.794;2023-06-04T02:08:29;0.10;;;0.10;;
9846;SDS011;68671;50.084;8.794;2023-06-04T02:10:58;0.20;;;0.20;;
9846;SDS011;68671;50.084;8.794;2023-06-04T02:13:26;0.10;;;0.10;;
9846;SDS011;68671;50.084;8.794;2023-06-04T02:15:53;0.15;;;0.15;;
9846;SDS011;68671;50.084;8.794;2023-06-04T02:18:20;0.20;;;0.20;;
9846;SDS011;68671;50.084;8.794;2023-06-04T02:20:48;0.10;;;0.10;;
9846;SDS011;68671;50.084;8.794;2023-06-04T02:23:16;0.20;;;0.20;;
9846;SDS011;68671;50.084;8.794;2023-06-04T02:25:43;0.10;;;0.10;;
9846;SDS011;68671;50.084;8.794;2023-06-04T02:28:10;0.10;;;0.10;;
9846;SDS011;68671;50.084;8.794;2023-06-04T02:30:39;0.10;;;0.10;;
9846;SDS011;68671;50.084;8.794;2023-06-04T02:33:06;0.20;;;0.20;;
9846;SDS011;68671;50.084;8.794;2023-06-04T02:35:34;0.15;;;0.15;;
9846;SDS011;68671;50.084;8.794;2023-06-04T02:38:01;0.10;;;0.10;;
9846;SDS011;68671;50.084;8.794;2023-06-04T02:40:28;0.20;;;0.20;;
9846;SDS011;68671;50.084;8.794;2023-06-04T02:42:56;0.20;;;0.20;;
9846;SDS011;68671;50.084;8.794;2023-06-04T02:45:23;0.20;;;0.20;;
9846;SDS011;68671;50.084;8.794;2023-06-04T02:47:51;0.10;;;0.10;;
9846;SDS011;68671;50.084;8.794;2023-06-04T02:50:18;0.10;;;0.10;;
9846;SDS011;68671;50.084;8.794;2023-06-04T02:52:46;0.20;;;0.20;;
9846;SDS011;68671;50.084;8.794;2023-06-04T02:55:13;0.15;;;0.15;;
9846;SDS011;68671;50.084;8.794;2023-06-04T02:57:40;0.10;;;0.10;;
9846;SDS011;68671;50.084;8.794;2023-06-04T03:00:08;0.13;;;0.13;;
9846;SDS011;68671;50.084;8.794;2023-06-04T03:02:38;0.10;;;0.10;;
9846;SDS011;68671;50.084;8.794;2023-06-04T03:05:08;0.20;;;0.20;;
9846;SDS011;68671;50.084;8.794;2023-06-04T03:07:38;0.10;;;0.10;;
9846;SDS011;68671;50.084;8.794;2023-06-04T03:10:07;0.20;;;0.20;;
9846;SDS011;68671;50.084;8.794;2023-06-04T03:12:35;0.10;;;0.10;;
9846;SDS011;68671;50.084;8.794;2023-06-04T03:15:02;0.10;;;0.10;;
9846;SDS011;68671;50.084;8.794;2023-06-04T03:17:30;0.10;;;0.10;;
9846;SDS011;68671;50.084;8.794;2023-06-04T03:19:57;0.10;;;0.10;;
9846;SDS011;68671;50.084;8.794;2023-06-04T03:22:26;0.10;;;0.10;;
9846;SDS011;68671;50.084;8.794;2023-06-04T03:24:53;0.20;;;0.20;;
9846;SDS011;68671;50.084;8.794;2023-06-04T03:27:20;0.10;;;0.10;;
9846;SDS011;68671;50.084;8.794;2023-06-04T03:29:47;0.20;;;0.20;;
9846;SDS011;68671;50.084;8.794;2023-06-04T03:32:14;0.15;;;0.15;;
9846;SDS011;68671;50.084;8.794;2023-06-04T03:34:42;0.10;;;0.10;;
9846;SDS011;68671;50.084;8.794;2023-06-04T03:37:09;0.10;;;0.10;;
9846;SDS011;68671;50.084;8.794;2023-06-04T03:39:37;0.10;;;0.10;;
9846;SDS011;68671;50.084;8.794;2023-06-04T03:42:04;0.20;;;0.20;;
9846;SDS011;68671;50.084;8.794;2023-06-04T03:44:31;0.20;;;0.20;;
9846;SDS011;68671;50.084;8.794;2023-06-04T03:46:58;0.10;;;0.10;;
9846;SDS011;68671;50.084;8.794;2023-06-04T03:49:25;0.17;;;0.17;;
9846;SDS011;68671;50.084;8.794;2023-06-04T03:51:52;0.10;;;0.10;;
9846;SDS011;68671;50.084;8.794;2023-06-04T03:54:20;0.17;;;0.17;;
9846;SDS011;68671;50.084;8.794;2023-06-04T03:56:49;0.20;;;0.20;;
9846;SDS011;68671;50.084;8.794;2023-06-04T03:59:16;0.13;;;0.13;;
9846;SDS011;68671;50.084;8.794;2023-06-04T04:01:43;0.20;;;0.20;;
9846;SDS011;68671;50.084;8.794;2023-06-04T04:04:10;0.15;;;0.15;;
9846;SDS011;68671;50.084;8.794;2023-06-04T04:06:37;0.17;;;0.17;;
9846;SDS011;68671;50.084;8.794;2023-06-04T04:09:04;0.17;;;0.17;;
9846;SDS011;68671;50.084;8.794;2023-06-04T04:11:31;0.20;;;0.20;;
9846;SDS011;68671;50.084;8.794;2023-06-04T04:14:00;0.20;;;0.20;;
9846;SDS011;68671;50.084;8.794;2023-06-04T04:16:27;0.20;;;0.20;;
9846;SDS011;68671;50.084;8.794;2023-06-04T04:18:54;0.10;;;0.10;;
9846;SDS011;68671;50.084;8.794;2023-06-04T04:21:21;0.20;;;0.20;;
9846;SDS011;68671;50.084;8.794;2023-06-04T04:23:49;0.20;;;0.20;;
9846;SDS011;68671;50.084;8.794;2023-06-04T04:26:16;0.20;;;0.20;;
9846;SDS011;68671;50.084;8.794;2023-06-04T04:28:43;0.20;;;0.20;;
9846;SDS011;68671;50.084;8.794;2023-06-04T04:31:12;0.20;;;0.20;;
9846;SDS011;68671;50.084;8.794;2023-06-04T04:33:39;0.10;;;0.10;;
9846;SDS011;68671;50.084;8.794;2023-06-04T04:36:07;0.20;;;0.20;;
9846;SDS011;68671;50.084;8.794;2023-06-04T04:38:38;0.10;;;0.10;;
9846;SDS011;68671;50.084;8.794;2023-06-04T04:41:06;0.10;;;0.10;;
9846;SDS011;68671;50.084;8.794;2023-06-04T04:43:34;0.10;;;0.10;;
9846;SDS011;68671;50.084;8.794;2023-06-04T04:46:02;0.10;;;0.10;;
9846;SDS011;68671;50.084;8.794;2023-06-04T04:48:31;0.10;;;0.10;;
9846;SDS011;68671;50.084;8.794;2023-06-04T04:50:58;0.10;;;0.10;;
9846;SDS011;68671;50.084;8.794;2023-06-04T04:53:25;0.10;;;0.10;;
9846;SDS011;68671;50.084;8.794;2023-06-04T04:55:53;0.10;;;0.10;;
9846;SDS011;68671;50.084;8.794;2023-06-04T04:58:20;0.10;;;0.10;;
9846;SDS011;68671;50.084;8.794;2023-06-04T05:00:47;0.10;;;0.10;;
9846;SDS011;68671;50.084;8.794;2023-06-04T05:03:14;0.10;;;0.10;;
9846;SDS011;68671;50.084;8.794;2023-06-04T05:05:43;0.10;;;0.10;;
9846;SDS011;68671;50.084;8.794;2023-06-04T05:08:10;0.10;;;0.10;;
9846;SDS011;68671;50.084;8.794;2023-06-04T05:10:37;0.10;;;0.10;;
9846;SDS011;68671;50.084;8.794;2023-06-04T05:13:04;0.10;;;0.10;;
9846;SDS011;68671;50.084;8.794;2023-06-04T05:15:31;0.10;;;0.10;;
9846;SDS011;68671;50.084;8.794;2023-06-04T05:17:58;0.10;;;0.10;;
9846;SDS011;68671;50.084;8.794;2023-06-04T05:20:28;0.10;;;0.10;;
9846;SDS011;68671;50.084;8.794;2023-06-04T05:22:57;0.10;;;0.10;;
9846;SDS011;68671;50.084;8.794;2023-06-04T05:25:26;0.10;;;0.10;;
9846;SDS011;68671;50.084;8.794;2023-06-04T05:27:53;0.10;;;0.10;;
9846;SDS011;68671;50.084;8.794;2023-06-04T05:30:22;0.10;;;0.10;;
9846;SDS011;68671;50.084;8.794;2023-06-04T05:32:49;0.10;;;0.10;;
9846;SDS011;68671;50.084;8.794;2023-06-04T05:35:18;0.10;;;0.10;;
9846;SDS011;68671;50.084;8.794;2023-06-04T05:37:46;0.10;;;0.10;;
9846;SDS011;68671;50.084;8.794;2023-06-04T05:40:20;0.10;;;0.10;;
9846;SDS011;68671;50.084;8.794;2023-06-04T05:42:47;0.10;;;0.10;;
9846;SDS011;68671;50.084;8.794;2023-06-04T05:45:14;0.10;;;0.10;;
9846;SDS011;68671;50.084;8.794;2023-06-04T05:47:41;0.10;;;0.10;;
9846;SDS011;68671;50.084;8.794;2023-06-04T05:50:08;0.10;;;0.10;;
9846;SDS011;68671;50.084;8.794;2023-06-04T05:52:36;0.10;;;0.10;;
9846;SDS011;68671;50.084;8.794;2023-06-04T05:55:03;0.10;;;0.10;;
9846;SDS011;68671;50.084;8.794;2023-06-04T05:57:34;0.10;;;0.10;;
9846;SDS011;68671;50.084;8.794;2023-06-04T06:00:01;0.10;;;0.10;;
9846;SDS011;68671;50.084;8.794;2023-06-04T06:02:29;0.10;;;0.10;;
9846;SDS011;68671;50.084;8.794;2023-06-04T06:04:57;0.10;;;0.10;;
9846;SDS011;68671;50.084;8.794;2023-06-04T06:07:24;0.10;;;0.10;;
9846;SDS011;68671;50.084;8.794;2023-06-04T06:09:51;0.10;;;0.10;;
9846;SDS011;68671;50.084;8.794;2023-06-04T06:12:18;0.10;;;0.10;;
9846;SDS011;68671;50.084;8.794;2023-06-04T06:14:46;0.10;;;0.10;;
9846;SDS011;68671;50.084;8.794;2023-06-04T06:17:13;0.10;;;0.10;;
9846;SDS011;68671;50.084;8.794;2023-06-04T06:19:40;0.20;;;0.20;;
9846;SDS011;68671;50.084;8.794;2023-06-04T06:22:07;0.10;;;0.10;;
9846;SDS011;68671;50.084;8.794;2023-06-04T06:24:34;0.10;;;0.10;;
9846;SDS011;68671;50.084;8.794;2023-06-04T06:27:01;0.10;;;0.10;;
9846;SDS011;68671;50.084;8.794;2023-06-04T06:29:28;0.10;;;0.10;;
9846;SDS011;68671;50.084;8.794;2023-06-04T06:31:56;0.10;;;0.10;;
9846;SDS011;68671;50.084;8.794;2023-06-04T06:34:24;0.13;;;0.13;;
9846;SDS011;68671;50.084;8.794;2023-06-04T06:36:51;0.13;;;0.13;;
9846;SDS011;68671;50.084;8.794;2023-06-04T06:39:18;0.10;;;0.10;;
9846;SDS011;68671;50.084;8.794;2023-06-04T06:41:45;0.13;;;0.13;;
9846;SDS011;68671;50.084;8.794;2023-06-04T06:44:12;0.10;;;0.10;;
9846;SDS011;68671;50.084;8.794;2023-06-04T06:46:39;0.20;;;0.20;;
9846;SDS011;68671;50.084;8.794;2023-06-04T06:49:08;0.20;;;0.20;;
9846;SDS011;68671;50.084;8.794;2023-06-04T06:51:35;0.20;;;0.20;;
9846;SDS011;68671;50.084;8.794;2023-06-04T06:54:02;0.20;;;0.20;;
9846;SDS011;68671;50.084;8.794;2023-06-04T06:56:29;0.20;;;0.20;;
9846;SDS011;68671;50.084;8.794;2023-06-04T06:58:56;0.20;;;0.20;;
9846;SDS011;68671;50.084;8.794;2023-06-04T07:01:23;0.20;;;0.20;;
9846;SDS011;68671;50.084;8.794;2023-06-04T07:03:50;0.20;;;0.20;;
9846;SDS011;68671;50.084;8.794;2023-06-04T07:06:18;0.20;;;0.20;;
9846;SDS011;68671;50.084;8.794;2023-06-04T07:08:45;0.20;;;0.20;;
9846;SDS011;68671;50.084;8.794;2023-06-04T07:11:14;0.20;;;0.20;;
9846;SDS011;68671;50.084;8.794;2023-06-04T07:13:41;0.20;;;0.20;;
9846;SDS011;68671;50.084;8.794;2023-06-04T07:16:08;0.20;;;0.20;;
9846;SDS011;68671;50.084;8.794;2023-06-04T07:19:12;0.20;;;0.20;;
9846;SDS011;68671;50.084;8.794;2023-06-04T07:21:38;0.20;;;0.20;;
9846;SDS011;68671;50.084;8.794;2023-06-04T07:24:06;0.20;;;0.20;;
9846;SDS011;68671;50.084;8.794;2023-06-04T07:26:34;0.30;;;0.30;;
9846;SDS011;68671;50.084;8.794;2023-06-04T07:29:01;0.20;;;0.20;;
9846;SDS011;68671;50.084;8.794;2023-06-04T07:31:28;0.20;;;0.20;;
9846;SDS011;68671;50.084;8.794;2023-06-04T07:33:55;0.20;;;0.20;;
9846;SDS011;68671;50.084;8.794;2023-06-04T07:36:22;0.20;;;0.20;;
9846;SDS011;68671;50.084;8.794;2023-06-04T07:38:51;0.20;;;0.20;;
9846;SDS011;68671;50.084;8.794;2023-06-04T07:41:18;0.20;;;0.20;;
9846;SDS011;68671;50.084;8.794;2023-06-04T07:43:45;0.20;;;0.20;;
9846;SDS011;68671;50.084;8.794;2023-06-04T07:46:12;0.20;;;0.20;;
9846;SDS011;68671;50.084;8.794;2023-06-04T07:48:43;0.20;;;0.20;;
9846;SDS011;68671;50.084;8.794;2023-06-04T07:51:13;0.20;;;0.20;;
9846;SDS011;68671;50.084;8.794;2023-06-04T07:53:40;0.20;;;0.20;;
9846;SDS011;68671;50.084;8.794;2023-06-04T07:56:11;0.20;;;0.20;;
9846;SDS011;68671;50.084;8.794;2023-06-04T07:58:38;0.20;;;0.20;;
9846;SDS011;68671;50.084;8.794;2023-06-04T08:01:05;0.20;;;0.20;;
9846;SDS011;68671;50.084;8.794;2023-06-04T08:03:36;0.20;;;0.20;;
9846;SDS011;68671;50.084;8.794;2023-06-04T08:06:03;0.20;;;0.20;;
9846;SDS011;68671;50.084;8.794;2023-06-04T08:08:44;0.20;;;0.20;;
9846;SDS011;68671;50.084;8.794;2023-06-04T08:11:16;0.20;;;0.20;;
9846;SDS011;68671;50.084;8.794;2023-06-04T08:13:51;0.20;;;0.20;;
9846;SDS011;68671;50.084;8.794;2023-06-04T08:16:19;0.20;;;0.20;;
9846;SDS011;68671;50.084;8.794;2023-06-04T08:18:46;0.20;;;0.20;;
9846;SDS011;68671;50.084;8.794;2023-06-04T08:21:14;0.20;;;0.20;;
9846;SDS011;68671;50.084;8.794;2023-06-04T08:23:56;0.20;;;0.20;;
9846;SDS011;68671;50.084;8.794;2023-06-04T08:26:27;0.20;;;0.20;;
9846;SDS011;68671;50.084;8.794;2023-06-04T08:28:56;0.20;;;0.20;;
9846;SDS011;68671;50.084;8.794;2023-06-04T08:31:23;0.20;;;0.20;;
9846;SDS011;68671;50.084;8.794;2023-06-04T08:33:53;0.10;;;0.10;;
9846;SDS011;68671;50.084;8.794;2023-06-04T08:36:22;0.10;;;0.10;;
9846;SDS011;68671;50.084;8.794;2023-06-04T08:38:50;0.10;;;0.10;;
9846;SDS011;68671;50.084;8.794;2023-06-04T08:41:20;0.10;;;0.10;;
9846;SDS011;68671;50.084;8.794;2023-06-04T08:43:58;0.10;;;0.10;;
9846;SDS011;68671;50.084;8.794;2023-06-04T08:46:26;0.10;;;0.10;;
9846;SDS011;68671;50.084;8.794;2023-06-04T08:48:56;0.10;;;0.10;;
9846;SDS011;68671;50.084;8.794;2023-06-04T08:51:37;0.00;;;0.00;;
9846;SDS011;68671;50.084;8.794;2023-06-04T08:54:05;0.10;;;0.10;;
9846;SDS011;68671;50.084;8.794;2023-06-04T08:56:34;0.00;;;0.00;;
9846;SDS011;68671;50.084;8.794;2023-06-04T08:59:03;0.10;;;0.10;;
9846;SDS011;68671;50.084;8.794;2023-06-04T09:01:38;0.00;;;0.00;;
9846;SDS011;68671;50.084;8.794;2023-06-04T09:04:11;0.05;;;0.05;;
9846;SDS011;68671;50.084;8.794;2023-06-04T09:06:39;0.00;;;0.00;;
9846;SDS011;68671;50.084;8.794;2023-06-04T09:09:10;0.00;;;0.00;;
9846;SDS011;68671;50.084;8.794;2023-06-04T09:11:43;0.00;;;0.00;;
9846;SDS011;68671;50.084;8.794;2023-06-04T09:14:19;0.10;;;0.10;;
9846;SDS011;68671;50.084;8.794;2023-06-04T09:16:49;0.00;;;0.00;;
9846;SDS011;68671;50.084;8.794;2023-06-04T09:19:23;0.00;;;0.00;;
9846;SDS011;68671;50.084;8.794;2023-06-04T09:21:54;0.00;;;0.00;;
9846;SDS011;68671;50.084;8.794;2023-06-04T09:24:26;0.00;;;0.00;;
9846;SDS011;68671;50.084;8.794;2023-06-04T09:27:11;0.00;;;0.00;;
9846;SDS011;68671;50.084;8.794;2023-06-04T09:29:49;0.00;;;0.00;;
9846;SDS011;68671;50.084;8.794;2023-06-04T09:32:20;0.00;;;0.00;;
9846;SDS011;68671;50.084;8.794;2023-06-04T09:34:48;0.00;;;0.00;;
9846;SDS011;68671;50.084;8.794;2023-06-04T09:37:18;0.00;;;0.00;;
9846;SDS011;68671;50.084;8.794;2023-06-04T09:39:52;0.10;;;0.10;;
9846;SDS011;68671;50.084;8.794;2023-06-04T09:45:56;0.00;;;0.00;;
9846;SDS011;68671;50.084;8.794;2023-06-04T09:48:41;0.00;;;0.00;;
9846;SDS011;68671;50.084;8.794;2023-06-04T09:51:09;0.00;;;0.00;;
9846;SDS011;68671;50.084;8.794;2023-06-04T09:53:42;0.10;;;0.10;;
9846;SDS011;68671;50.084;8.794;2023-06-04T09:56:20;0.00;;;0.00;;
9846;SDS011;68671;50.084;8.794;2023-06-04T09:58:47;0.10;;;0.10;;
9846;SDS011;68671;50.084;8.794;2023-06-04T10:01:26;0.00;;;0.00;;
9846;SDS011;68671;50.084;8.794;2023-06-04T10:03:54;0.00;;;0.00;;
9846;SDS011;68671;50.084;8.794;2023-06-04T10:06:24;0.00;;;0.00;;
9846;SDS011;68671;50.084;8.794;2023-06-04T10:08:53;0.10;;;0.10;;
9846;SDS011;68671;50.084;8.794;2023-06-04T10:11:25;0.10;;;0.10;;
9846;SDS011;68671;50.084;8.794;2023-06-04T10:13:57;0.00;;;0.00;;
9846;SDS011;68671;50.084;8.794;2023-06-04T10:16:30;0.00;;;0.00;;
9846;SDS011;68671;50.084;8.794;2023-06-04T10:18:58;0.10;;;0.10;;
9846;SDS011;68671;50.084;8.794;2023-06-04T10:21:27;0.00;;;0.00;;
9846;SDS011;68671;50.084;8.794;2023-06-04T10:24:00;0.00;;;0.00;;
9846;SDS011;68671;50.084;8.794;2023-06-04T10:26:35;0.10;;;0.10;;
9846;SDS011;68671;50.084;8.794;2023-06-04T10:29:21;0.00;;;0.00;;
9846;SDS011;68671;50.084;8.794;2023-06-04T10:32:33;0.00;;;0.00;;
9846;SDS011;68671;50.084;8.794;2023-06-04T10:35:30;0.03;;;0.03;;
9846;SDS011;68671;50.084;8.794;2023-06-04T10:41:42;0.00;;;0.00;;
9846;SDS011;68671;50.084;8.794;2023-06-04T10:44:09;0.00;;;0.00;;
9846;SDS011;68671;50.084;8.794;2023-06-04T10:50:16;0.03;;;0.03;;
9846;SDS011;68671;50.084;8.794;2023-06-04T10:52:52;0.00;;;0.00;;
9846;SDS011;68671;50.084;8.794;2023-06-04T10:55:28;0.00;;;0.00;;
9846;SDS011;68671;50.084;8.794;2023-06-04T10:57:56;0.00;;;0.00;;
9846;SDS011;68671;50.084;8.794;2023-06-04T11:00:38;0.00;;;0.00;;
9846;SDS011;68671;50.084;8.794;2023-06-04T11:03:44;0.07;;;0.07;;
9846;SDS011;68671;50.084;8.794;2023-06-04T11:06:18;0.00;;;0.00;;
9846;SDS011;68671;50.084;8.794;2023-06-04T11:09:00;0.10;;;0.10;;
9846;SDS011;68671;50.084;8.794;2023-06-04T11:11:29;0.03;;;0.03;;
9846;SDS011;68671;50.084;8.794;2023-06-04T11:14:06;0.10;;;0.10;;
9846;SDS011;68671;50.084;8.794;2023-06-04T11:16:37;0.10;;;0.10;;
9846;SDS011;68671;50.084;8.794;2023-06-04T11:19:05;0.08;;;0.08;;
9846;SDS011;68671;50.084;8.794;2023-06-04T11:21:34;0.00;;;0.00;;
9846;SDS011;68671;50.084;8.794;2023-06-04T11:24:09;0.10;;;0.10;;
9846;SDS011;68671;50.084;8.794;2023-06-04T11:26:38;0.10;;;0.10;;
9846;SDS011;68671;50.084;8.794;2023-06-04T11:29:06;0.00;;;0.00;;
9846;SDS011;68671;50.084;8.794;2023-06-04T11:31:40;0.00;;;0.00;;
9846;SDS011;68671;50.084;8.794;2023-06-04T11:34:08;0.10;;;0.10;;
9846;SDS011;68671;50.084;8.794;2023-06-04T11:36:38;0.10;;;0.10;;
9846;SDS011;68671;50.084;8.794;2023-06-04T11:39:05;0.10;;;0.10;;
9846;SDS011;68671;50.084;8.794;2023-06-04T11:41:32;0.10;;;0.10;;
9846;SDS011;68671;50.084;8.794;2023-06-04T11:44:02;0.10;;;0.10;;
9846;SDS011;68671;50.084;8.794;2023-06-04T11:46:31;0.10;;;0.10;;
9846;SDS011;68671;50.084;8.794;2023-06-04T11:48:59;0.10;;;0.10;;
9846;SDS011;68671;50.084;8.794;2023-06-04T11:51:26;0.10;;;0.10;;
9846;SDS011;68671;50.084;8.794;2023-06-04T11:53:55;0.10;;;0.10;;
9846;SDS011;68671;50.084;8.794;2023-06-04T11:56:23;0.10;;;0.10;;
9846;SDS011;68671;50.084;8.794;2023-06-04T11:58:51;0.10;;;0.10;;
9846;SDS011;68671;50.084;8.794;2023-06-04T12:01:21;0.00;;;0.00;;
9846;SDS011;68671;50.084;8.794;2023-06-04T12:03:53;0.10;;;0.10;;
9846;SDS011;68671;50.084;8.794;2023-06-04T12:06:20;0.00;;;0.00;;
9846;SDS011;68671;50.084;8.794;2023-06-04T12:08:48;0.10;;;0.10;;
9846;SDS011;68671;50.084;8.794;2023-06-04T12:11:29;0.03;;;0.03;;
9846;SDS011;68671;50.084;8.794;2023-06-04T12:13:57;0.03;;;0.03;;
9846;SDS011;68671;50.084;8.794;2023-06-04T12:16:26;0.10;;;0.10;;
9846;SDS011;68671;50.084;8.794;2023-06-04T12:19:04;0.10;;;0.10;;
9846;SDS011;68671;50.084;8.794;2023-06-04T12:21:32;0.10;;;0.10;;
9846;SDS011;68671;50.084;8.794;2023-06-04T12:24:06;0.10;;;0.10;;
9846;SDS011;68671;50.084;8.794;2023-06-04T12:26:35;0.10;;;0.10;;
9846;SDS011;68671;50.084;8.794;2023-06-04T12:29:09;0.10;;;0.10;;
9846;SDS011;68671;50.084;8.794;2023-06-04T12:31:37;0.10;;;0.10;;
9846;SDS011;68671;50.084;8.794;2023-06-04T12:34:04;0.10;;;0.10;;
9846;SDS011;68671;50.084;8.794;2023-06-04T12:36:31;0.00;;;0.00;;
9846;SDS011;68671;50.084;8.794;2023-06-04T12:39:01;0.10;;;0.10;;
9846;SDS011;68671;50.084;8.794;2023-06-04T12:41:30;0.10;;;0.10;;
9846;SDS011;68671;50.084;8.794;2023-06-04T12:44:18;0.10;;;0.10;;
9846;SDS011;68671;50.084;8.794;2023-06-04T12:46:53;0.10;;;0.10;;
9846;SDS011;68671;50.084;8.794;2023-06-04T12:49:23;0.00;;;0.00;;
9846;SDS011;68671;50.084;8.794;2023-06-04T12:52:08;0.10;;;0.10;;
9846;SDS011;68671;50.084;8.794;2023-06-04T12:54:39;0.00;;;0.00;;
9846;SDS011;68671;50.084;8.794;2023-06-04T12:57:06;0.10;;;0.10;;
9846;SDS011;68671;50.084;8.794;2023-06-04T12:59:34;0.10;;;0.10;;
9846;SDS011;68671;50.084;8.794;2023-06-04T13:02:01;0.10;;;0.10;;
9846;SDS011;68671;50.084;8.794;2023-06-04T13:04:28;0.00;;;0.00;;
9846;SDS011;68671;50.084;8.794;2023-06-04T13:06:55;0.10;;;0.10;;
9846;SDS011;68671;50.084;8.794;2023-06-04T13:09:24;0.10;;;0.10;;
9846;SDS011;68671;50.084;8.794;2023-06-04T13:11:53;0.08;;;0.08;;
9846;SDS011;68671;50.084;8.794;2023-06-04T13:14:20;0.10;;;0.10;;
9846;SDS011;68671;50.084;8.794;2023-06-04T13:16:48;0.00;;;0.00;;
9846;SDS011;68671;50.084;8.794;2023-06-04T13:19:16;0.10;;;0.10;;
9846;SDS011;68671;50.084;8.794;2023-06-04T13:21:44;0.00;;;0.00;;
9846;SDS011;68671;50.084;8.794;2023-06-04T13:24:11;0.10;;;0.10;;
9846;SDS011;68671;50.084;8.794;2023-06-04T13:26:41;0.00;;;0.00;;
9846;SDS011;68671;50.084;8.794;2023-06-04T13:29:08;0.00;;;0.00;;
9846;SDS011;68671;50.084;8.794;2023-06-04T13:31:35;0.10;;;0.10;;
9846;SDS011;68671;50.084;8.794;2023-06-04T13:34:05;0.00;;;0.00;;
9846;SDS011;68671;50.084;8.794;2023-06-04T13:36:32;0.00;;;0.00;;
9846;SDS011;68671;50.084;8.794;2023-06-04T13:39:00;0.00;;;0.00;;
9846;SDS011;68671;50.084;8.794;2023-06-04T13:41:33;0.00;;;0.00;;
9846;SDS011;68671;50.084;8.794;2023-06-04T13:44:17;0.00;;;0.00;;
9846;SDS011;68671;50.084;8.794;2023-06-04T13:46:44;0.10;;;0.10;;
9846;SDS011;68671;50.084;8.794;2023-06-04T13:49:12;0.05;;;0.05;;
9846;SDS011;68671;50.084;8.794;2023-06-04T13:51:39;0.10;;;0.10;;
9846;SDS011;68671;50.084;8.794;2023-06-04T13:54:07;0.10;;;0.10;;
9846;SDS011;68671;50.084;8.794;2023-06-04T13:56:34;0.00;;;0.00;;
9846;SDS011;68671;50.084;8.794;2023-06-04T13:59:01;0.00;;;0.00;;
9846;SDS011;68671;50.084;8.794;2023-06-04T14:01:28;0.00;;;0.00;;
9846;SDS011;68671;50.084;8.794;2023-06-04T14:03:55;0.00;;;0.00;;
9846;SDS011;68671;50.084;8.794;2023-06-04T14:06:24;0.00;;;0.00;;
9846;SDS011;68671;50.084;8.794;2023-06-04T14:08:51;0.00;;;0.00;;
9846;SDS011;68671;50.084;8.794;2023-06-04T14:11:19;0.00;;;0.00;;
9846;SDS011;68671;50.084;8.794;2023-06-04T14:13:46;0.10;;;0.10;;
9846;SDS011;68671;50.084;8.794;2023-06-04T14:16:13;0.00;;;0.00;;
9846;SDS011;68671;50.084;8.794;2023-06-04T14:18:40;0.00;;;0.00;;
9846;SDS011;68671;50.084;8.794;2023-06-04T14:21:07;0.00;;;0.00;;
9846;SDS011;68671;50.084;8.794;2023-06-04T14:23:36;0.10;;;0.10;;
9846;SDS011;68671;50.084;8.794;2023-06-04T14:26:03;0.00;;;0.00;;
9846;SDS011;68671;50.084;8.794;2023-06-04T14:28:32;0.00;;;0.00;;
9846;SDS011;68671;50.084;8.794;2023-06-04T14:30:59;0.00;;;0.00;;
9846;SDS011;68671;50.084;8.794;2023-06-04T14:33:27;0.00;;;0.00;;
9846;SDS011;68671;50.084;8.794;2023-06-04T14:35:54;0.10;;;0.10;;
9846;SDS011;68671;50.084;8.794;2023-06-04T14:38:21;0.00;;;0.00;;
9846;SDS011;68671;50.084;8.794;2023-06-04T14:40:49;0.10;;;0.10;;
9846;SDS011;68671;50.084;8.794;2023-06-04T14:43:16;0.00;;;0.00;;
9846;SDS011;68671;50.084;8.794;2023-06-04T14:45:43;0.00;;;0.00;;
9846;SDS011;68671;50.084;8.794;2023-06-04T14:48:10;0.00;;;0.00;;
9846;SDS011;68671;50.084;8.794;2023-06-04T14:50:37;0.03;;;0.03;;
9846;SDS011;68671;50.084;8.794;2023-06-04T14:53:04;0.00;;;0.00;;
9846;SDS011;68671;50.084;8.794;2023-06-04T14:55:34;0.00;;;0.00;;
9846;SDS011;68671;50.084;8.794;2023-06-04T14:58:04;0.00;;;0.00;;
9846;SDS011;68671;50.084;8.794;2023-06-04T15:00:31;0.00;;;0.00;;
9846;SDS011;68671;50.084;8.794;2023-06-04T15:03:01;0.00;;;0.00;;
9846;SDS011;68671;50.084;8.794;2023-06-04T15:05:28;0.00;;;0.00;;
9846;SDS011;68671;50.084;8.794;2023-06-04T15:07:55;0.10;;;0.10;;
9846;SDS011;68671;50.084;8.794;2023-06-04T15:10:24;0.00;;;0.00;;
9846;SDS011;68671;50.084;8.794;2023-06-04T15:12:51;0.00;;;0.00;;
9846;SDS011;68671;50.084;8.794;2023-06-04T15:15:22;0.00;;;0.00;;
9846;SDS011;68671;50.084;8.794;2023-06-04T15:17:50;0.00;;;0.00;;
9846;SDS011;68671;50.084;8.794;2023-06-04T15:20:17;0.10;;;0.10;;
9846;SDS011;68671;50.084;8.794;2023-06-04T15:22:45;0.10;;;0.10;;
9846;SDS011;68671;50.084;8.794;2023-06-04T15:25:13;0.00;;;0.00;;